Time;durP1;ratioP1;P1;durP2;ratioP2;P2;SDS_P1;SDS_P2;PMS_P1;PMS_P2;Temp;Humidity;BMP_temperature;BMP_pressure;BME280_temperature;BME280_humidity;BME280_pressure;Samples;Min_cycle;Max_cycle;Signal;HPM_P1;HPM_P2
2022/06/10 00:01:58;;;;;;;69.32;41.03;;;;;;;15.29;96.54;100374.94;5105762;28;20020;-74
2022/06/10 00:04:23;;;;;;;76.45;43.05;;;;;;;15.29;96.53;100382.78;5105687;28;20043;-74
2022/06/10 00:06:48;;;;;;;68.28;43.33;;;;;;;15.24;96.89;100381.13;5105739;28;20024;-74
2022/06/10 00:09:14;;;;;;;79.88;43.78;;;;;;;15.23;97.07;100381.19;5105765;28;20043;-74
2022/06/10 00:11:39;;;;;;;76.20;43.95;;;;;;;15.16;97.06;100377.03;5105731;28;20028;-74
2022/06/10 00:14:05;;;;;;;73.43;42.85;;;;;;;15.16;97.04;100392.72;5105732;28;20036;-73
2022/06/10 00:16:31;;;;;;;75.72;43.35;;;;;;;15.16;96.97;100379.66;5105601;28;20031;-73
2022/06/10 00:18:56;;;;;;;78.47;46.70;;;;;;;15.12;97.10;100376.25;5105452;28;20024;-73
2022/06/10 00:21:22;;;;;;;82.00;47.85;;;;;;;15.11;96.88;100383.22;5105650;28;20077;-73
2022/06/10 00:23:48;;;;;;;85.70;45.90;;;;;;;15.16;96.66;100387.50;5105292;28;20112;-73
2022/06/10 00:26:14;;;;;;;80.63;46.22;;;;;;;15.12;96.69;100378.88;5087006;28;20096;-73
2022/06/10 00:28:42;;;;;;;77.15;45.00;;;;;;;15.14;96.52;100397.13;5105322;28;20024;-73
2022/06/10 00:31:08;;;;;;;78.25;45.10;;;;;;;15.08;96.69;100391.16;5105584;28;20036;-73
2022/06/10 00:33:34;;;;;;;75.80;43.70;;;;;;;15.10;96.50;100394.59;5105209;28;20035;-73
2022/06/10 00:36:00;;;;;;;74.57;45.50;;;;;;;15.06;96.57;100399.97;5105293;28;20017;-73
2022/06/10 00:38:25;;;;;;;74.55;45.15;;;;;;;15.04;96.67;100401.75;5104970;28;20077;-72
2022/06/10 00:40:54;;;;;;;70.68;41.58;;;;;;;15.02;96.72;100403.53;5105151;28;20024;-73
2022/06/10 00:43:23;;;;;;;67.38;42.03;;;;;;;14.94;97.07;100402.00;5104939;28;20027;-72
2022/06/10 00:46:00;;;;;;;74.13;43.55;;;;;;;14.93;96.73;100405.53;5104989;28;20088;-73
2022/06/10 00:48:37;;;;;;;80.35;43.80;;;;;;;14.93;96.69;100404.66;5105155;28;20469;-73
2022/06/10 00:51:14;;;;;;;82.43;46.60;;;;;;;14.91;96.71;100398.59;5104973;28;20083;-73
2022/06/10 00:53:41;;;;;;;83.38;46.08;;;;;;;14.90;96.57;100402.13;5104736;28;20028;-73
2022/06/10 00:56:11;;;;;;;82.40;46.15;;;;;;;14.87;96.38;100408.31;5104827;28;20034;-73
2022/06/10 00:58:43;;;;;;;92.60;48.55;;;;;;;14.85;96.67;100412.69;5104578;28;20074;-73
2022/06/10 01:01:10;;;;;;;82.33;46.03;;;;;;;14.85;96.50;100416.19;5104686;28;20033;-73
2022/06/10 01:03:36;;;;;;;84.30;49.17;;;;;;;14.83;96.65;100420.59;5085951;28;20137;-72
2022/06/10 01:06:02;;;;;;;88.93;50.15;;;;;;;14.85;96.89;100416.19;5086443;28;20016;-73
2022/06/10 01:08:28;;;;;;;79.80;45.38;;;;;;;14.85;96.53;100413.56;5104578;28;20104;-73
2022/06/10 01:11:20;;;;;;;80.88;48.35;;;;;;;14.86;96.62;100415.28;5104692;28;20020;-73
2022/06/10 01:13:57;;;;;;;82.93;46.85;;;;;;;14.91;96.68;100424.75;5104459;28;20020;-72
2022/06/10 01:16:50;;;;;;;84.22;48.78;;;;;;;14.92;96.63;100423.84;5104349;28;20351;-73
2022/06/10 01:19:49;;;;;;;83.28;46.67;;;;;;;14.92;96.66;100429.91;5104310;28;20059;-72
2022/06/10 01:22:14;;;;;;;81.85;44.97;;;;;;;14.93;96.76;100431.66;5104190;28;20028;-73
2022/06/10 01:25:01;;;;;;;85.05;47.40;;;;;;;14.97;96.65;100437.66;5104177;28;20042;-73
2022/06/10 01:27:48;;;;;;;79.28;47.20;;;;;;;15.00;96.98;100434.94;5104253;28;20048;-73
2022/06/10 01:30:16;;;;;;;79.75;47.40;;;;;;;15.04;96.53;100435.72;5104368;28;20020;-73
2022/06/10 01:32:53;;;;;;;79.90;44.20;;;;;;;15.05;96.59;100437.47;5104164;28;20049;-72
2022/06/10 01:35:30;;;;;;;87.97;48.15;;;;;;;15.03;96.69;100432.25;5085698;28;20109;-72
2022/06/10 01:38:23;;;;;;;88.55;46.33;;;;;;;15.05;96.44;100440.91;5104110;28;20016;-72
2022/06/10 01:40:52;;;;;;;88.50;45.25;;;;;;;15.05;96.74;100442.69;5103861;28;20028;-74
2022/06/10 01:43:40;;;;;;;102.07;47.05;;;;;;;15.07;96.80;100446.97;5104057;28;20035;-74
2022/06/10 01:46:25;;;;;;;84.18;43.97;;;;;;;15.03;96.64;100447.09;5104143;28;20023;-72
2022/06/10 01:48:53;;;;;;;81.40;43.65;;;;;;;15.02;96.57;100455.81;5104079;28;20107;-75
2022/06/10 01:51:30;;;;;;;81.43;45.47;;;;;;;15.02;96.83;100456.69;5103926;28;20516;-72
2022/06/10 01:54:04;;;;;;;82.05;46.05;;;;;;;15.07;96.80;100448.72;5103741;28;20418;-73
2022/06/10 01:56:35;;;;;;;92.03;46.08;;;;;;;15.08;96.87;100455.69;5103503;28;20085;-73
2022/06/10 01:59:12;;;;;;;84.67;45.37;;;;;;;15.06;96.55;100452.25;5103817;28;20024;-73
2022/06/10 02:01:40;;;;;;;77.53;43.00;;;;;;;15.06;96.71;100449.63;5103540;28;20092;-73
2022/06/10 02:04:15;;;;;;;75.00;41.70;;;;;;;15.02;96.46;100461.03;5103608;28;20031;-73
2022/06/10 02:06:49;;;;;;;78.85;43.40;;;;;;;14.92;96.14;100455.22;5103659;28;20024;-73
2022/06/10 02:09:19;;;;;;;73.22;42.85;;;;;;;14.93;96.46;100463.03;5103599;28;20027;-73
2022/06/10 02:11:50;;;;;;;95.78;46.42;;;;;;;14.94;96.61;100466.47;5103878;28;20027;-73
2022/06/10 02:14:24;;;;;;;101.20;47.60;;;;;;;14.91;96.27;100461.34;5103049;28;20024;-73
2022/06/10 02:16:51;;;;;;;116.80;50.05;;;;;;;14.87;96.54;100466.63;5103692;28;20035;-73
2022/06/10 02:19:19;;;;;;;114.72;47.00;;;;;;;14.90;96.20;100470.09;5103455;28;20423;-73
2022/06/10 02:21:51;;;;;;;134.52;48.35;;;;;;;14.84;96.26;100471.09;5103521;28;20020;-74
2022/06/10 02:24:23;;;;;;;136.85;50.50;;;;;;;14.81;96.23;100473.81;5103270;28;20024;-74
2022/06/10 02:26:50;;;;;;;151.60;47.80;;;;;;;14.78;95.96;100463.34;5103480;28;20024;-74
2022/06/10 02:29:25;;;;;;;240.85;53.63;;;;;;;14.72;95.86;100469.63;5103565;28;20027;-73
2022/06/10 02:31:55;;;;;;;263.27;56.28;;;;;;;14.71;95.92;100478.34;5103660;28;20020;-73
2022/06/10 02:34:21;;;;;;;272.02;60.00;;;;;;;14.69;96.43;100474.91;5103323;28;20115;-73
2022/06/10 02:36:58;;;;;;;281.63;50.70;;;;;;;14.62;96.27;100482.03;5103413;28;20035;-72
2022/06/10 02:39:38;;;;;;;165.38;39.83;;;;;;;14.62;96.17;100488.13;5103108;28;20020;-71
2022/06/10 02:42:13;;;;;;;175.20;36.58;;;;;;;14.60;96.22;100489.91;5102970;28;20111;-72
2022/06/10 02:45:01;;;;;;;207.30;37.63;;;;;;;14.54;95.82;100490.06;5102582;28;20020;-67
2022/06/10 02:47:55;;;;;;;178.90;38.20;;;;;;;14.55;96.40;100497.03;5102811;28;20085;-75
2022/06/10 02:50:21;;;;;;;150.05;35.35;;;;;;;14.53;96.42;100485.75;5103385;28;20084;-75
2022/06/10 02:52:47;;;;;;;167.75;39.13;;;;;;;14.57;96.50;100491.75;5103841;28;20050;-75
2022/06/10 02:55:16;;;;;;;267.10;43.70;;;;;;;14.57;96.54;100502.22;5103006;28;20027;-75
2022/06/10 03:03:31;;;;;;;190.13;40.47;;;;;;;14.60;96.20;100504.75;5103275;28;20119;-76
2022/06/10 03:06:19;;;;;;;340.70;50.38;;;;;;;14.53;96.27;100500.53;5103103;28;20337;-74
2022/06/10 03:08:53;;;;;;;285.23;48.75;;;;;;;14.59;96.41;100505.63;5102711;28;20318;-75
2022/06/10 03:11:34;;;;;;;320.95;48.05;;;;;;;14.59;96.57;100513.47;5103174;28;20020;-74
2022/06/10 03:14:26;;;;;;;317.27;50.63;;;;;;;14.60;96.13;100510.81;5103013;28;20347;-75
2022/06/10 03:17:03;;;;;;;266.00;49.37;;;;;;;14.58;96.50;100503.91;5102992;28;20039;-74
2022/06/10 03:19:39;;;;;;;291.42;47.25;;;;;;;14.63;96.18;100517.75;5102907;28;20267;-74
2022/06/10 03:22:04;;;;;;;197.77;42.80;;;;;;;14.60;96.30;100518.66;5102834;28;20083;-75
2022/06/10 03:24:55;;;;;;;181.25;43.08;;;;;;;14.56;96.36;100521.38;5102585;28;20039;-74
2022/06/10 03:27:48;;;;;;;208.77;47.13;;;;;;;14.58;96.19;100525.69;5106079;28;20468;-74
2022/06/10 03:30:18;;;;;;;199.10;46.78;;;;;;;14.52;96.54;100510.13;5106685;28;20097;-74
2022/06/10 03:32:49;;;;;;;232.27;50.97;;;;;;;14.58;96.83;100532.66;5106711;28;20020;-74
2022/06/10 03:35:21;;;;;;;191.45;48.05;;;;;;;14.60;96.76;100526.50;5106346;28;20020;-74
2022/06/10 03:37:47;;;;;;;192.63;47.55;;;;;;;14.54;96.66;100528.38;5106508;28;20031;-74
2022/06/10 03:40:18;;;;;;;206.65;45.70;;;;;;;14.60;96.49;100528.25;5106437;28;20399;-74
2022/06/10 03:42:53;;;;;;;187.75;48.30;;;;;;;14.55;96.35;100523.16;5106554;28;20028;-74
2022/06/10 03:45:23;;;;;;;177.73;46.53;;;;;;;14.54;96.75;100531.84;5106325;28;20126;-74
2022/06/10 03:47:49;;;;;;;184.57;47.85;;;;;;;14.54;96.61;100524.03;5106262;28;20030;-74
2022/06/10 03:50:19;;;;;;;173.88;49.42;;;;;;;14.50;96.72;100528.44;5106201;28;20028;-74
2022/06/10 03:52:45;;;;;;;185.57;50.75;;;;;;;14.59;96.74;100539.59;5106117;28;20020;-76
2022/06/10 03:55:15;;;;;;;174.90;48.13;;;;;;;14.53;96.59;100526.66;5105785;28;20026;-74
2022/06/10 03:57:41;;;;;;;167.15;46.60;;;;;;;14.62;96.57;100540.38;5105767;28;20050;-74
2022/06/10 04:00:07;;;;;;;175.45;46.50;;;;;;;14.57;96.46;100547.47;5105832;28;20069;-74
2022/06/10 04:02:32;;;;;;;248.07;54.63;;;;;;;14.57;96.82;100550.06;5105736;28;20622;-74
2022/06/10 04:04:57;;;;;;;183.02;46.85;;;;;;;14.58;96.74;100546.59;5105664;28;20024;-75
2022/06/10 04:07:23;;;;;;;178.13;46.40;;;;;;;14.57;96.68;100533.56;5105868;28;20046;-74
2022/06/10 04:09:48;;;;;;;202.85;46.35;;;;;;;14.57;97.14;100539.63;5105416;28;20372;-74
2022/06/10 04:12:15;;;;;;;212.90;48.72;;;;;;;14.62;96.72;100543.00;5105571;28;20031;-74
2022/06/10 04:14:41;;;;;;;192.27;45.22;;;;;;;14.61;96.84;100541.28;5105469;28;20016;-75
2022/06/10 04:17:06;;;;;;;152.35;44.28;;;;;;;14.65;96.95;100546.44;5105456;28;20077;-75
2022/06/10 04:19:32;;;;;;;200.93;48.35;;;;;;;14.61;96.69;100549.13;5105554;28;20020;-74
2022/06/10 04:21:57;;;;;;;140.32;44.40;;;;;;;14.59;96.67;100548.28;5105262;28;20024;-74
2022/06/10 04:24:23;;;;;;;121.40;43.65;;;;;;;14.59;96.91;100553.53;5105301;28;20020;-74
2022/06/10 04:26:48;;;;;;;110.50;39.92;;;;;;;14.56;96.84;100548.38;5105184;28;20020;-74
2022/06/10 04:29:14;;;;;;;85.22;32.65;;;;;;;14.55;97.03;100557.09;5105229;28;20020;-74
2022/06/10 04:31:40;;;;;;;75.72;31.45;;;;;;;14.54;96.99;100560.59;5105408;28;20020;-75
2022/06/10 04:34:07;;;;;;;60.15;27.95;;;;;;;14.57;96.65;100557.06;5105044;28;20072;-74
2022/06/10 04:36:32;;;;;;;54.80;24.63;;;;;;;14.55;96.80;100553.63;5104632;28;20035;-74
2022/06/10 04:38:57;;;;;;;53.47;24.73;;;;;;;14.56;96.81;100558.81;5104791;28;20060;-74
2022/06/10 04:41:24;;;;;;;52.83;24.90;;;;;;;14.52;96.59;100557.16;5105083;28;20112;-74
2022/06/10 04:43:49;;;;;;;65.00;26.30;;;;;;;14.47;96.42;100556.41;5104912;28;20046;-74
2022/06/10 04:46:28;;;;;;;49.13;27.65;;;;;;;14.50;96.47;100561.56;5104954;28;20027;-74
2022/06/10 04:48:53;;;;;;;56.20;29.08;;;;;;;14.56;96.67;100569.28;5104551;28;20035;-74
2022/06/10 04:51:20;;;;;;;47.20;25.90;;;;;;;14.56;96.93;100561.44;5104749;28;20020;-74
2022/06/10 04:53:45;;;;;;;33.67;20.25;;;;;;;14.59;96.40;100563.97;5086368;28;20020;-71
2022/06/10 04:56:11;;;;;;;29.42;19.45;;;;;;;14.57;96.52;100570.97;5104699;28;20063;-69
2022/06/10 04:58:36;;;;;;;27.38;19.52;;;;;;;14.55;96.22;100569.31;5104068;28;20051;-73
2022/06/10 05:01:02;;;;;;;32.35;18.92;;;;;;;14.59;96.34;100571.81;5104727;28;20020;-74
2022/06/10 05:03:27;;;;;;;20.50;14.60;;;;;;;14.58;96.34;100572.72;5104717;28;20030;-74
2022/06/10 05:05:53;;;;;;;22.77;14.88;;;;;;;14.57;95.72;100575.38;5104405;28;20386;-72
2022/06/10 05:08:18;;;;;;;21.10;13.55;;;;;;;14.46;95.61;100572.97;5104566;28;20088;-73
2022/06/10 05:10:46;;;;;;;17.88;13.25;;;;;;;14.46;95.85;100588.63;5104226;28;20024;-73
2022/06/10 05:13:11;;;;;;;25.05;15.02;;;;;;;14.46;96.08;100583.41;5104305;28;20058;-73
2022/06/10 05:15:36;;;;;;;21.63;12.32;;;;;;;14.50;95.59;100585.09;5104229;28;20016;-70
2022/06/10 05:18:03;;;;;;;18.70;13.45;;;;;;;14.43;95.78;100575.66;5104314;28;20051;-70
2022/06/10 05:20:32;;;;;;;20.65;13.90;;;;;;;14.40;95.69;100587.03;5104200;28;20020;-69
2022/06/10 05:22:59;;;;;;;20.08;12.23;;;;;;;14.36;95.39;100588.84;5103877;28;20024;-69
2022/06/10 05:25:24;;;;;;;17.98;12.27;;;;;;;14.30;95.41;100596.81;5104117;28;20028;-69
2022/06/10 05:27:49;;;;;;;17.98;12.15;;;;;;;14.27;95.40;100598.59;5104093;28;20098;-69
2022/06/10 05:30:21;;;;;;;15.75;10.07;;;;;;;14.23;94.95;100603.91;5104343;28;20089;-69
2022/06/10 05:32:46;;;;;;;17.02;10.20;;;;;;;14.21;95.03;100613.53;5104188;28;20044;-69
2022/06/10 05:35:12;;;;;;;21.20;10.55;;;;;;;14.13;95.24;100608.47;5104242;28;20035;-72
2022/06/10 05:37:38;;;;;;;15.60;10.25;;;;;;;14.15;95.03;100618.00;5104286;28;20504;-68
2022/06/10 05:40:04;;;;;;;21.27;9.00;;;;;;;14.10;95.12;100615.50;5103842;28;20012;-72
2022/06/10 05:42:30;;;;;;;15.90;8.32;;;;;;;14.00;95.25;100614.81;5103828;28;20056;-74
2022/06/10 05:44:55;;;;;;;17.13;8.43;;;;;;;13.99;94.58;100628.75;5103747;28;20369;-76
2022/06/10 05:47:25;;;;;;;14.23;7.15;;;;;;;13.95;94.39;100632.31;5103772;28;20020;-75
2022/06/10 05:49:53;;;;;;;14.90;6.95;;;;;;;13.84;94.83;100640.34;5103016;28;20024;-75
2022/06/10 05:52:22;;;;;;;16.85;7.47;;;;;;;13.75;94.63;100638.78;5103688;28;20097;-74
2022/06/10 05:54:49;;;;;;;18.33;6.13;;;;;;;13.67;94.49;100641.53;5103448;28;20025;-74
2022/06/10 05:57:15;;;;;;;17.08;5.95;;;;;;;13.62;94.61;100639.00;5103243;28;20077;-74
2022/06/10 05:59:41;;;;;;;13.13;6.28;;;;;;;13.59;94.41;100646.00;5103423;28;20024;-73
2022/06/10 06:02:10;;;;;;;18.35;6.43;;;;;;;13.58;94.35;100647.75;5103746;28;20048;-74
2022/06/10 06:04:36;;;;;;;11.70;5.38;;;;;;;13.67;94.05;100651.94;5103627;28;20030;-74
2022/06/10 06:07:01;;;;;;;12.38;5.93;;;;;;;13.56;94.16;100644.28;5103868;28;20025;-75
2022/06/10 06:09:27;;;;;;;15.70;5.65;;;;;;;13.55;93.96;100653.00;5103504;28;20057;-74
2022/06/10 06:11:56;;;;;;;12.95;5.82;;;;;;;13.63;94.11;100655.47;5103627;28;20556;-75
2022/06/10 06:14:21;;;;;;;18.05;6.18;;;;;;;13.65;94.03;100660.66;5103555;28;20024;-75
2022/06/10 06:16:55;;;;;;;10.02;5.50;;;;;;;13.69;93.57;100657.97;5103522;28;20035;-75
2022/06/10 06:19:21;;;;;;;15.48;5.35;;;;;;;13.63;93.30;100661.56;5103667;28;20043;-74
2022/06/10 06:21:46;;;;;;;11.10;5.43;;;;;;;13.58;93.17;100666.00;5103193;28;20035;-74
2022/06/10 06:24:11;;;;;;;10.75;5.28;;;;;;;13.54;93.18;100669.56;5103269;28;20676;-74
2022/06/10 06:26:37;;;;;;;12.30;5.82;;;;;;;13.44;93.60;100666.19;5103800;28;20039;-73
2022/06/10 06:29:03;;;;;;;15.32;6.60;;;;;;;13.37;93.14;100675.03;5103591;28;20050;-73
2022/06/10 06:31:28;;;;;;;16.42;6.97;;;;;;;13.22;93.98;100676.09;5103288;28;20024;-74
2022/06/10 06:33:54;;;;;;;17.23;7.20;;;;;;;13.17;94.17;100678.78;5103326;28;20032;-73
2022/06/10 06:36:23;;;;;;;21.42;6.85;;;;;;;13.12;94.29;100686.69;5103450;28;20099;-72
2022/06/10 06:38:49;;;;;;;16.73;6.72;;;;;;;13.02;94.89;100685.06;5103552;28;20023;-72
2022/06/10 06:41:16;;;;;;;14.30;6.70;;;;;;;13.04;94.90;100683.31;5103142;28;20330;-73
2022/06/10 06:43:42;;;;;;;19.15;7.22;;;;;;;13.06;94.87;100691.09;5103400;28;20027;-74
2022/06/10 06:46:11;;;;;;;16.60;6.68;;;;;;;13.05;95.64;100690.22;5103358;28;20031;-73
2022/06/10 06:48:36;;;;;;;18.52;7.15;;;;;;;13.04;95.33;100685.91;5103358;28;20027;-73
2022/06/10 06:51:02;;;;;;;20.35;7.28;;;;;;;13.07;95.66;100691.09;5103217;28;20020;-73
2022/06/10 06:53:27;;;;;;;11.20;6.32;;;;;;;13.09;95.49;100697.16;5103407;28;20023;-73
2022/06/10 06:55:52;;;;;;;20.42;6.93;;;;;;;13.10;95.77;100700.63;5102949;28;20024;-74
2022/06/10 06:58:18;;;;;;;11.73;6.30;;;;;;;13.11;95.54;100703.22;5103416;28;20071;-74
2022/06/10 07:00:44;;;;;;;12.23;6.50;;;;;;;13.02;95.81;100705.91;5086777;28;20633;-74
2022/06/10 07:03:09;;;;;;;10.88;5.55;;;;;;;13.13;95.79;100704.03;5107193;28;20042;-74
2022/06/10 07:05:35;;;;;;;12.00;5.72;;;;;;;13.12;95.69;100711.88;5107072;28;20032;-74
2022/06/10 07:08:01;;;;;;;12.35;5.57;;;;;;;13.14;95.54;100716.19;5107103;28;20035;-73
2022/06/10 07:10:27;;;;;;;13.25;6.60;;;;;;;13.13;95.77;100705.78;5106901;28;20108;-74
2022/06/10 07:12:53;;;;;;;19.55;7.15;;;;;;;13.21;95.16;100711.72;5106996;28;20028;-73
2022/06/10 07:15:21;;;;;;;13.70;6.60;;;;;;;13.26;95.51;100724.69;5106776;28;20073;-73
2022/06/10 07:17:47;;;;;;;15.93;8.13;;;;;;;13.23;95.34;100719.53;5106929;28;20169;-73
2022/06/10 07:20:27;;;;;;;16.17;8.70;;;;;;;13.24;95.21;100719.50;5106696;28;20448;-74
2022/06/10 07:22:52;;;;;;;16.67;8.05;;;;;;;13.30;95.79;100726.41;5106658;28;20028;-73
2022/06/10 07:25:19;;;;;;;14.98;9.32;;;;;;;13.38;95.39;100724.53;5106490;28;20036;-73
2022/06/10 07:27:44;;;;;;;18.33;7.55;;;;;;;13.46;95.16;100736.59;5105966;28;20020;-74
2022/06/10 07:30:14;;;;;;;19.13;8.30;;;;;;;13.50;95.38;100738.25;5106493;28;20024;-74
2022/06/10 07:32:40;;;;;;;14.32;6.63;;;;;;;13.55;95.11;100736.47;5106681;28;20013;-74
2022/06/10 07:35:06;;;;;;;13.27;6.75;;;;;;;13.60;94.50;100741.63;5106416;28;20020;-74
2022/06/10 07:37:32;;;;;;;15.52;6.45;;;;;;;13.59;94.29;100748.59;5106538;28;20095;-74
2022/06/10 07:39:57;;;;;;;11.98;7.15;;;;;;;13.60;93.32;100752.06;5106252;28;20499;-73
2022/06/10 07:42:22;;;;;;;9.98;5.88;;;;;;;13.60;92.96;100744.22;5106107;28;20020;-74
2022/06/10 07:44:48;;;;;;;11.30;5.80;;;;;;;13.59;92.86;100753.81;5106058;28;20290;-74
2022/06/10 07:47:14;;;;;;;12.18;6.47;;;;;;;13.59;92.28;100742.53;5106176;28;20506;-73
2022/06/10 07:49:40;;;;;;;14.23;5.75;;;;;;;13.63;92.13;100755.50;5106265;28;20027;-73
2022/06/10 07:52:06;;;;;;;11.20;5.63;;;;;;;13.63;91.43;100760.72;5106253;28;20040;-73
2022/06/10 07:54:34;;;;;;;8.85;5.20;;;;;;;13.65;91.33;100763.28;5105984;28;20587;-74
2022/06/10 07:57:00;;;;;;;11.32;6.22;;;;;;;13.69;91.15;100769.34;5105841;28;20052;-74
2022/06/10 07:59:25;;;;;;;9.25;5.00;;;;;;;13.75;90.82;100771.84;5105968;28;20047;-74
2022/06/10 08:01:51;;;;;;;10.93;5.15;;;;;;;13.74;89.79;100767.50;5106082;28;20110;-75
2022/06/10 08:04:16;;;;;;;9.57;4.85;;;;;;;13.78;89.75;100771.78;5087488;28;20087;-75
2022/06/10 08:06:46;;;;;;;9.20;4.90;;;;;;;13.80;89.04;100775.22;5105999;28;20295;-74
2022/06/10 08:09:11;;;;;;;9.05;4.18;;;;;;;13.81;89.00;100776.97;5105779;28;20031;-74
2022/06/10 08:11:38;;;;;;;6.25;4.28;;;;;;;13.87;87.97;100774.25;5104840;28;20020;-74
2022/06/10 08:14:05;;;;;;;7.85;4.10;;;;;;;13.90;87.57;100782.94;5105682;28;20046;-72
2022/06/10 08:16:30;;;;;;;7.85;4.30;;;;;;;13.94;87.28;100784.59;5105831;28;20031;-73
2022/06/10 08:18:56;;;;;;;8.43;4.22;;;;;;;13.92;86.13;100778.53;5105714;28;20044;-74
2022/06/10 08:24:06;;;;;;;5.40;3.67;;;;;;;13.95;85.39;100791.50;5105523;28;20058;-74
2022/06/10 08:26:33;;;;;;;8.18;4.47;;;;;;;13.99;85.51;100788.81;5105719;28;20030;-74
2022/06/10 08:28:59;;;;;;;6.95;4.43;;;;;;;14.06;84.61;100794.81;5105551;28;20024;-76
2022/06/10 08:31:24;;;;;;;9.20;4.35;;;;;;;14.08;84.86;100793.06;5105311;28;20108;-73
2022/06/10 08:33:50;;;;;;;6.25;4.40;;;;;;;14.15;84.75;100788.59;5105378;28;20085;-76
2022/06/10 08:36:15;;;;;;;7.45;4.13;;;;;;;14.23;84.48;100788.47;5105070;28;20183;-75
2022/06/10 08:38:42;;;;;;;7.07;4.22;;;;;;;14.25;82.99;100794.50;5105243;28;20028;-74
2022/06/10 08:41:15;;;;;;;7.55;4.10;;;;;;;14.27;83.21;100791.84;5104936;28;20471;-74
2022/06/10 08:44:06;;;;;;;6.00;3.47;;;;;;;14.31;82.84;100794.41;5105186;28;20052;-73
2022/06/10 08:46:41;;;;;;;7.23;4.10;;;;;;;14.45;82.58;100798.50;5105142;28;20020;-74
2022/06/10 08:49:40;;;;;;;9.13;4.38;;;;;;;14.55;82.44;100799.19;5104950;28;20031;-74
2022/06/10 08:52:31;;;;;;;9.10;4.15;;;;;;;14.73;82.57;100808.44;5105111;28;20024;-74
2022/06/10 08:55:34;;;;;;;7.25;4.13;;;;;;;14.85;82.76;100816.09;5104637;28;20035;-74
2022/06/10 08:58:03;;;;;;;9.95;4.20;;;;;;;14.93;81.92;100810.69;5104761;28;20371;-74
2022/06/10 09:00:36;;;;;;;8.57;3.95;;;;;;;14.97;81.92;100814.97;5104971;28;20343;-74
2022/06/10 09:03:17;;;;;;;8.13;5.13;;;;;;;15.04;81.18;100815.69;5104478;28;20031;-74
2022/06/10 09:05:50;;;;;;;8.85;5.07;;;;;;;15.06;80.41;100824.38;5104445;28;20404;-74
2022/06/10 09:08:21;;;;;;;11.05;5.28;;;;;;;15.11;80.56;100821.69;5104556;28;20020;-74
2022/06/10 09:11:01;;;;;;;7.75;5.07;;;;;;;15.22;80.35;100816.22;5104386;28;20028;-74
2022/06/10 09:13:45;;;;;;;9.82;4.93;;;;;;;15.25;80.18;100824.00;5104402;28;20102;-74
2022/06/10 09:16:15;;;;;;;8.13;4.45;;;;;;;15.24;79.76;100820.50;5104349;28;20032;-74
2022/06/10 09:18:47;;;;;;;7.90;5.22;;;;;;;15.28;78.52;100825.66;5104737;28;20030;-74
2022/06/10 09:21:29;;;;;;;10.20;4.93;;;;;;;15.36;78.85;100824.63;5104391;28;20028;-74
2022/06/10 09:23:58;;;;;;;9.80;4.63;;;;;;;15.38;78.52;100829.81;5104256;28;20051;-74
2022/06/10 09:26:39;;;;;;;10.75;4.40;;;;;;;15.46;78.50;100832.28;5085972;28;20240;-74
2022/06/10 09:29:04;;;;;;;5.65;3.92;;;;;;;15.48;77.82;100828.72;5104311;28;20027;-74
2022/06/10 09:31:40;;;;;;;11.20;4.13;;;;;;;15.55;77.92;100833.81;5104196;28;20035;-74
2022/06/10 09:34:19;;;;;;;6.75;3.63;;;;;;;15.60;77.38;100835.44;5104009;28;20043;-74
2022/06/10 09:36:57;;;;;;;6.60;3.80;;;;;;;15.63;76.56;100839.75;5103944;28;20073;-74
2022/06/10 09:42:28;;;;;;;8.20;3.97;;;;;;;15.58;75.43;100844.22;5103164;28;20176;-74
2022/06/10 09:45:33;;;;;;;7.97;4.10;;;;;;;15.41;74.81;100847.19;5102764;28;20020;-74
2022/06/10 09:48:46;;;;;;;7.95;4.30;;;;;;;15.41;75.16;100840.22;5103232;28;20050;-74
2022/06/10 09:51:25;;;;;;;7.28;3.53;;;;;;;15.55;75.29;100842.53;5103191;28;20035;-74
2022/06/10 09:54:07;;;;;;;5.00;2.75;;;;;;;15.84;75.26;100840.13;5103317;28;20012;-74
2022/06/10 09:56:55;;;;;;;6.28;2.72;;;;;;;16.17;74.28;100844.63;5103059;28;20027;-74
2022/06/10 09:59:46;;;;;;;4.55;2.63;;;;;;;16.37;73.53;100844.13;5103564;28;20464;-74
2022/06/10 10:02:23;;;;;;;4.57;2.55;;;;;;;16.53;71.67;100852.47;5103914;28;20050;-75
2022/06/10 10:05:10;;;;;;;3.03;2.42;;;;;;;16.62;69.55;100850.47;5103870;28;20033;-74
2022/06/10 10:07:55;;;;;;;3.78;2.33;;;;;;;16.68;68.49;100855.53;5103816;28;20024;-74
2022/06/10 10:10:57;;;;;;;2.88;1.85;;;;;;;16.73;67.74;100862.41;5103670;28;20020;-73
2022/06/10 10:13:35;;;;;;;3.90;2.03;;;;;;;16.93;68.29;100854.88;5103765;28;20021;-73
2022/06/10 10:16:10;;;;;;;2.88;1.70;;;;;;;17.29;68.44;100860.00;5103785;28;20031;-73
2022/06/10 10:19:00;;;;;;;2.88;1.90;;;;;;;17.48;64.97;100851.59;5103633;28;20031;-73
2022/06/10 10:21:53;;;;;;;3.65;1.63;;;;;;;17.53;63.13;100859.31;5103603;28;20016;-74
2022/06/10 10:24:21;;;;;;;2.42;1.50;;;;;;;17.57;62.44;100856.53;5103787;28;20050;-74
2022/06/10 10:26:51;;;;;;;4.90;1.75;;;;;;;17.74;62.03;100862.19;5103828;28;20025;-74
2022/06/10 10:29:31;;;;;;;2.28;1.70;;;;;;;17.99;62.21;100846.50;5104140;28;20031;-75
2022/06/10 10:32:01;;;;;;;2.67;1.73;;;;;;;18.30;62.21;100848.16;5103956;28;20024;-74
2022/06/10 10:34:32;;;;;;;2.10;1.70;;;;;;;18.52;60.66;100852.66;5103403;28;20028;-73
2022/06/10 10:37:01;;;;;;;2.17;1.58;;;;;;;18.68;59.15;100854.75;5107737;28;20031;-74
2022/06/10 10:39:35;;;;;;;3.42;1.50;;;;;;;18.88;59.84;100847.94;5107219;28;20026;-74
2022/06/10 10:42:13;;;;;;;2.90;1.85;;;;;;;19.06;59.40;100846.38;5107283;28;20027;-74
2022/06/10 10:44:45;;;;;;;3.13;1.70;;;;;;;19.44;59.15;100853.78;5107475;28;20020;-74
2022/06/10 10:47:10;;;;;;;2.28;1.63;;;;;;;19.65;57.67;100853.88;5107360;28;20073;-74
2022/06/10 10:49:44;;;;;;;3.00;1.58;;;;;;;19.77;56.66;100849.88;5107200;28;20059;-73
2022/06/10 10:52:19;;;;;;;3.58;1.42;;;;;;;19.92;56.12;100845.78;5107570;28;20023;-74
2022/06/10 10:54:48;;;;;;;2.50;1.20;;;;;;;20.08;56.00;100832.00;5107271;28;20024;-74
2022/06/10 10:57:45;;;;;;;1.77;1.48;;;;;;;20.24;56.42;100848.84;5107064;28;20051;-74
2022/06/10 11:00:16;;;;;;;2.92;1.65;;;;;;;19.96;53.22;100852.63;5106394;28;20036;-75
2022/06/10 11:02:45;;;;;;;2.42;1.65;;;;;;;19.75;54.85;100855.22;5107077;28;20040;-75
2022/06/10 11:05:32;;;;;;;2.55;1.92;;;;;;;19.49;54.77;100862.34;5107333;28;20043;-75
2022/06/10 11:08:06;;;;;;;2.83;1.95;;;;;;;19.14;55.48;100865.41;5107196;28;20364;-75
2022/06/10 11:10:34;;;;;;;3.78;1.60;;;;;;;18.91;56.15;100859.19;5107125;28;20028;-75
2022/06/10 11:13:06;;;;;;;2.47;1.95;;;;;;;18.78;56.71;100861.41;5107213;28;20027;-74
2022/06/10 11:15:34;;;;;;;4.85;1.90;;;;;;;18.57;57.08;100863.03;5106933;28;20348;-74
2022/06/10 11:18:01;;;;;;;2.95;1.98;;;;;;;18.35;57.21;100862.91;5107276;28;20024;-74
2022/06/10 11:20:33;;;;;;;3.83;2.00;;;;;;;18.23;58.42;100862.41;5106829;28;20020;-74
2022/06/10 11:23:24;;;;;;;3.80;2.30;;;;;;;17.86;57.93;100868.84;5088679;28;20054;-75
2022/06/10 11:26:12;;;;;;;3.42;2.35;;;;;;;17.42;59.28;100878.88;5088417;28;20324;-75
2022/06/10 11:28:40;;;;;;;4.55;2.33;;;;;;;17.11;60.75;100882.38;5106502;28;20020;-75
2022/06/10 11:31:23;;;;;;;4.55;2.63;;;;;;;16.89;61.70;100887.31;5106704;28;20156;-75
2022/06/10 11:33:52;;;;;;;6.30;3.00;;;;;;;16.70;62.45;100898.31;5106758;28;20526;-75
2022/06/10 11:36:35;;;;;;;5.25;3.38;;;;;;;16.47;63.34;100891.91;5106672;28;20030;-75
2022/06/10 11:39:28;;;;;;;5.15;3.63;;;;;;;16.42;64.49;100893.78;5106608;28;20031;-76
2022/06/10 11:42:14;;;;;;;8.23;5.40;;;;;;;16.24;65.13;100888.09;5106438;28;20047;-75
2022/06/10 11:44:48;;;;;;;7.25;5.00;;;;;;;16.08;66.17;100890.22;5106441;28;20087;-75
2022/06/10 11:47:25;;;;;;;8.73;4.93;;;;;;;15.98;66.94;100894.81;5106404;28;20020;-75